This is the latest recevied weather packets stored in our database for station/object PD2SKZ-12. If no packets are shown the sender has not sent any weather packets the latest 10 day(s).
| Time | Temp. | Humidity | Pressure | Rain* | Wind** | Luminosity | Snow |
|---|---|---|---|---|---|---|---|
| 1777273047 | 9.44° C | 79% | 1026.4 hPa | 0 mm | - | - | - |
| 1777272747 | 8.89° C | 79% | 1026.4 hPa | 0 mm | - | - | - |
| 1777272147 | 8.89° C | 80% | 1026.5 hPa | 0 mm | - | - | - |
| 1777271547 | 8.33° C | 81% | 1026.4 hPa | 0 mm | - | - | - |
| 1777268867 | 7.22° C | 84% | 1026.3 hPa | 0 mm | - | - | - |
| 1777267947 | 7.22° C | 84% | 1026.2 hPa | 0 mm | - | - | - |
| 1777267648 | 7.22° C | 85% | 1026.1 hPa | 0 mm | - | - | - |
| 1777266167 | 6.67° C | 86% | 1025.9 hPa | 0 mm | - | - | - |
| 1777265247 | 6.67° C | 87% | 1025.9 hPa | 0 mm | - | - | - |
| 1777264677 | 6.11° C | 87% | 1025.9 hPa | 0 mm | - | - | - |
| 1777264047 | 6.11° C | 87% | 1025.9 hPa | 0 mm | - | - | - |
| 1777261667 | 6.67° C | 86% | 1025.9 hPa | 0 mm | - | - | - |
| 1777260747 | 6.67° C | 86% | 1026 hPa | 0 mm | - | - | - |
| 1777258647 | 6.67° C | 85% | 1025.8 hPa | 0 mm | - | - | - |
| 1777253248 | 7.78° C | 84% | 1026 hPa | 0 mm | - | - | - |
| 1777252067 | 7.78° C | 84% | 1026.1 hPa | 0 mm | - | - | - |
| 1777251147 | 7.78° C | 83% | 1026.2 hPa | 0 mm | - | - | - |
| 1777249948 | 8.33° C | 83% | 1026.1 hPa | 0 mm | - | - | - |
| 1777248147 | 8.33° C | 81% | 1026.2 hPa | 0 mm | - | - | - |
| 1777245447 | 8.33° C | 82% | 1026.3 hPa | 0 mm | - | - | - |
| 1777242448 | 9.44° C | 79% | 1026.1 hPa | 0 mm | - | - | - |
| 1777242147 | 9.44° C | 79% | 1026.1 hPa | 0 mm | - | - | - |
| 1777241849 | 9.44° C | 78% | 1026.1 hPa | 0 mm | - | - | - |
| 1777241548 | 9.44° C | 78% | 1026.1 hPa | 0 mm | - | - | - |
| 1777240047 | 10° C | 75% | 1026.2 hPa | 0 mm | - | - | - |
* Rain latest hour (hover to see other rain measurements)
** Current wind speed in m/s (hover to see current wind gust speed)